createdAt,value
2018-12-09T00:01:48.457Z,6.29
2018-12-09T00:04:14.610Z,6.38
2018-12-09T00:06:40.828Z,6.35
2018-12-09T00:09:07.155Z,6.49
2018-12-09T00:11:33.433Z,6.61
2018-12-09T00:13:59.622Z,6.80
2018-12-09T00:16:25.773Z,6.58
2018-12-09T00:18:51.925Z,6.80
2018-12-09T00:21:18.105Z,6.85
2018-12-09T00:23:44.272Z,7.17
2018-12-09T00:26:10.432Z,7.34
2018-12-09T00:28:36.632Z,7.47
2018-12-09T00:31:02.810Z,7.47
2018-12-09T00:33:28.949Z,7.36
2018-12-09T00:35:55.141Z,7.06
2018-12-09T00:38:21.285Z,7.31
2018-12-09T00:40:47.568Z,7.44
2018-12-09T00:43:13.749Z,7.19
2018-12-09T00:45:39.911Z,7.44
2018-12-09T00:48:06.088Z,7.43
2018-12-09T00:50:32.281Z,7.62
2018-12-09T00:52:58.425Z,7.61
2018-12-09T00:55:24.598Z,7.37
2018-12-09T00:57:51.332Z,7.57
2018-12-09T01:00:17.505Z,7.62
2018-12-09T01:02:43.669Z,7.73
2018-12-09T01:05:09.876Z,7.53
2018-12-09T01:07:36.025Z,7.42
2018-12-09T01:10:03.670Z,7.64
2018-12-09T01:12:29.843Z,7.69
2018-12-09T01:14:56.000Z,7.42
2018-12-09T01:17:22.150Z,7.41
2018-12-09T01:19:48.350Z,7.43
2018-12-09T01:22:14.499Z,7.55
2018-12-09T01:24:40.648Z,7.80
2018-12-09T01:27:06.839Z,7.90
2018-12-09T01:29:32.978Z,7.85
2018-12-09T01:31:59.559Z,7.71
2018-12-09T01:34:25.749Z,7.77
2018-12-09T01:36:51.900Z,7.98
2018-12-09T01:39:19.545Z,7.98
2018-12-09T01:41:45.793Z,7.98
2018-12-09T01:44:11.953Z,7.99
2018-12-09T01:46:38.098Z,8.24
2018-12-09T01:49:04.297Z,8.56
2018-12-09T01:51:30.465Z,8.19
2018-12-09T01:54:05.648Z,8.29
2018-12-09T01:56:32.234Z,8.43
2018-12-09T01:58:58.394Z,8.54
2018-12-09T02:01:24.598Z,8.44
2018-12-09T02:03:50.893Z,8.39
2018-12-09T02:06:17.040Z,8.46
2018-12-09T02:08:43.670Z,8.42
2018-12-09T02:11:09.813Z,8.41
2018-12-09T02:13:35.945Z,8.41
2018-12-09T02:16:02.112Z,8.36
2018-12-09T02:18:28.290Z,8.15
2018-12-09T02:20:54.458Z,7.95
2018-12-09T02:23:20.626Z,7.84
2018-12-09T02:25:46.801Z,7.85
2018-12-09T02:28:12.953Z,7.92
2018-12-09T02:30:39.140Z,8.07
2018-12-09T02:33:05.310Z,7.98
2018-12-09T02:35:35.529Z,8.20
2018-12-09T02:38:01.712Z,8.19
2018-12-09T02:40:27.882Z,7.94
2018-12-09T02:42:54.034Z,7.67
2018-12-09T02:45:20.215Z,7.67
2018-12-09T02:47:46.372Z,7.65
2018-12-09T02:50:12.545Z,7.63
2018-12-09T02:52:38.789Z,7.71
2018-12-09T02:55:05.070Z,7.52
2018-12-09T02:57:31.231Z,7.40
2018-12-09T02:59:58.109Z,7.24
2018-12-09T03:02:24.420Z,7.29
2018-12-09T03:04:50.598Z,7.13
2018-12-09T03:07:16.785Z,6.84
2018-12-09T03:09:42.940Z,6.95
2018-12-09T03:12:09.657Z,7.23
2018-12-09T03:14:35.847Z,7.45
2018-12-09T03:17:01.988Z,7.45
2018-12-09T03:22:04.449Z,7.79
2018-12-09T03:24:30.598Z,7.68
2018-12-09T03:26:56.782Z,7.71
2018-12-09T03:29:22.959Z,7.51
2018-12-09T03:31:49.117Z,7.45
2018-12-09T03:34:15.278Z,7.29
2018-12-09T03:36:41.461Z,7.35
2018-12-09T03:39:07.621Z,7.62
2018-12-09T03:41:33.783Z,7.74
2018-12-09T03:43:59.954Z,7.72
2018-12-09T03:46:26.131Z,7.50
2018-12-09T03:48:52.309Z,7.70
2018-12-09T03:51:18.687Z,7.77
2018-12-09T03:53:44.850Z,7.93
2018-12-09T03:56:11.013Z,7.99
2018-12-09T03:58:39.274Z,7.81
2018-12-09T04:01:05.431Z,7.51
2018-12-09T04:03:31.596Z,7.26
2018-12-09T04:05:57.805Z,7.10
2018-12-09T04:08:23.946Z,7.36
2018-12-09T04:10:50.084Z,7.53
2018-12-09T04:13:16.273Z,7.37
2018-12-09T04:15:42.408Z,7.36
2018-12-09T04:18:09.112Z,7.52
2018-12-09T04:20:35.302Z,7.69
2018-12-09T04:23:01.451Z,7.64
2018-12-09T04:27:59.505Z,7.71
2018-12-09T04:30:26.082Z,7.76
2018-12-09T04:32:52.223Z,7.67
2018-12-09T04:35:18.413Z,7.40
2018-12-09T04:37:44.577Z,7.48
2018-12-09T04:40:10.728Z,7.43
2018-12-09T04:42:36.919Z,7.00
2018-12-09T04:45:03.345Z,7.19
2018-12-09T04:47:29.503Z,6.78
2018-12-09T04:49:55.685Z,6.91
2018-12-09T04:52:21.938Z,6.80
2018-12-09T04:54:48.095Z,7.01
2018-12-09T04:57:14.610Z,6.83
2018-12-09T04:59:44.826Z,7.01
2018-12-09T05:02:11.001Z,7.08
2018-12-09T05:04:37.189Z,7.01
2018-12-09T05:07:03.332Z,7.17
2018-12-09T05:09:29.480Z,7.41
2018-12-09T05:11:55.657Z,7.67
2018-12-09T05:14:21.795Z,7.92
2018-12-09T05:16:47.968Z,7.69
2018-12-09T05:19:14.138Z,7.74
2018-12-09T05:21:40.296Z,7.76
2018-12-09T05:24:06.966Z,7.86
2018-12-09T05:26:33.153Z,8.04
2018-12-09T05:28:59.333Z,8.22
2018-12-09T05:31:25.489Z,8.21
2018-12-09T05:33:51.665Z,8.37
2018-12-09T05:36:17.932Z,8.58
2018-12-09T05:38:44.097Z,8.58
2018-12-09T05:41:10.274Z,8.67
2018-12-09T05:43:36.449Z,8.75
2018-12-09T05:46:02.641Z,8.60
2018-12-09T05:48:28.943Z,8.64
2018-12-09T05:50:55.131Z,8.84
2018-12-09T05:53:21.294Z,8.52
2018-12-09T05:55:47.485Z,8.70
2018-12-09T05:58:13.649Z,8.75
2018-12-09T06:00:39.812Z,8.92
2018-12-09T06:03:06.021Z,9.05
2018-12-09T06:05:32.516Z,8.91
2018-12-09T06:07:58.673Z,8.76
2018-12-09T06:10:24.844Z,8.96
2018-12-09T06:12:51.008Z,9.03
2018-12-09T06:15:17.188Z,9.23
2018-12-09T06:17:43.386Z,9.46
2018-12-09T06:20:10.078Z,9.70
2018-12-09T06:22:36.240Z,9.83
2018-12-09T06:25:02.453Z,10.02
2018-12-09T06:27:28.636Z,10.00
2018-12-09T06:29:54.805Z,10.14
2018-12-09T06:32:21.067Z,10.36
2018-12-09T06:34:47.221Z,10.36
2018-12-09T06:37:13.372Z,10.41
2018-12-09T06:39:39.565Z,10.47
2018-12-09T06:42:05.978Z,10.55
2018-12-09T06:44:32.231Z,10.57
2018-12-09T06:46:58.449Z,10.40
2018-12-09T06:49:24.610Z,10.32
2018-12-09T06:51:50.801Z,10.32
2018-12-09T06:54:17.076Z,10.37
2018-12-09T06:56:43.241Z,10.38
2018-12-09T06:59:09.381Z,10.18
2018-12-09T07:01:35.583Z,9.97
2018-12-09T07:04:01.758Z,10.03
2018-12-09T07:06:27.946Z,9.90
2018-12-09T07:08:54.128Z,10.00
2018-12-09T07:11:20.294Z,10.17
2018-12-09T07:13:46.458Z,10.34
2018-12-09T07:16:12.666Z,10.41
2018-12-09T07:18:38.805Z,10.49
2018-12-09T07:21:05.008Z,10.60
2018-12-09T07:23:31.194Z,10.52
2018-12-09T07:25:57.391Z,10.54
2018-12-09T07:28:23.564Z,10.69
2018-12-09T07:30:49.869Z,10.83
2018-12-09T07:33:16.026Z,11.03
2018-12-09T07:35:42.177Z,11.10
2018-12-09T07:38:08.469Z,11.13
2018-12-09T07:40:34.629Z,10.97
2018-12-09T07:43:00.789Z,10.79
2018-12-09T07:45:27.024Z,10.81
2018-12-09T07:47:53.208Z,10.92
2018-12-09T07:50:19.369Z,10.84
2018-12-09T07:52:46.414Z,10.76
2018-12-09T07:55:12.865Z,10.79
2018-12-09T07:57:39.025Z,10.96
2018-12-09T08:00:07.490Z,11.08
2018-12-09T08:02:33.662Z,11.20
2018-12-09T08:04:59.841Z,11.40
2018-12-09T08:07:26.046Z,11.48
2018-12-09T08:09:52.229Z,11.52
2018-12-09T08:12:18.397Z,11.57
2018-12-09T08:14:44.579Z,11.84
2018-12-09T08:17:10.739Z,11.96
2018-12-09T08:19:36.948Z,12.17
2018-12-09T08:22:03.129Z,12.40
2018-12-09T08:24:29.289Z,12.62
2018-12-09T08:26:55.569Z,12.80
2018-12-09T08:29:22.553Z,12.87
2018-12-09T08:31:48.744Z,13.00
2018-12-09T08:34:14.906Z,13.03
2018-12-09T08:36:41.382Z,13.06
2018-12-09T08:39:07.517Z,13.14
2018-12-09T08:41:33.669Z,12.81
2018-12-09T08:43:59.845Z,13.12
2018-12-09T08:46:26.002Z,13.28
2018-12-09T08:48:52.128Z,13.19
2018-12-09T08:51:18.285Z,13.39
2018-12-09T08:53:44.429Z,13.53
2018-12-09T08:56:10.729Z,13.55
2018-12-09T08:58:36.921Z,13.79
2018-12-09T09:01:03.113Z,14.09
2018-12-09T09:03:29.257Z,14.38
2018-12-09T09:05:55.424Z,14.11
2018-12-09T09:08:21.558Z,14.49
2018-12-09T09:10:47.717Z,14.37
2018-12-09T09:13:13.900Z,14.43
2018-12-09T09:15:40.071Z,13.69
2018-12-09T09:18:06.213Z,13.91
2018-12-09T09:20:32.421Z,14.05
2018-12-09T09:22:58.558Z,14.53
2018-12-09T09:25:24.730Z,14.34
2018-12-09T09:27:50.922Z,13.37
2018-12-09T09:30:17.057Z,13.04
2018-12-09T09:32:43.332Z,13.56
2018-12-09T09:35:09.518Z,13.67
2018-12-09T09:37:35.672Z,13.81
2018-12-09T09:40:02.377Z,13.83
2018-12-09T09:42:28.567Z,13.67
2018-12-09T09:44:54.705Z,13.92
2018-12-09T09:47:20.850Z,13.87
2018-12-09T09:49:47.030Z,13.56
2018-12-09T09:52:13.201Z,14.00
2018-12-09T09:54:39.358Z,14.07
2018-12-09T09:57:05.561Z,14.30
2018-12-09T09:59:31.710Z,14.19
2018-12-09T10:01:57.865Z,14.67
2018-12-09T10:04:24.071Z,14.65
2018-12-09T10:06:50.205Z,14.93
2018-12-09T10:09:16.362Z,14.99
2018-12-09T10:11:42.532Z,14.01
2018-12-09T10:14:08.680Z,13.76
2018-12-09T10:16:34.861Z,14.20
2018-12-09T10:19:01.029Z,14.01
2018-12-09T10:21:27.215Z,14.52
2018-12-09T10:23:53.361Z,15.03
2018-12-09T10:26:19.551Z,15.00
2018-12-09T10:28:45.841Z,14.83
2018-12-09T10:31:12.006Z,14.70
2018-12-09T10:33:38.213Z,14.69
2018-12-09T10:36:04.384Z,14.96
2018-12-09T10:38:30.553Z,15.32
2018-12-09T10:40:56.722Z,15.34
2018-12-09T10:43:22.877Z,15.66
2018-12-09T10:45:49.055Z,15.55
2018-12-09T10:48:15.222Z,15.70
2018-12-09T10:50:41.384Z,15.76
2018-12-09T10:53:07.517Z,15.44
2018-12-09T10:55:33.689Z,15.16
2018-12-09T10:57:59.921Z,14.56
2018-12-09T11:00:32.041Z,14.46
2018-12-09T11:02:58.215Z,14.35
2018-12-09T11:05:24.374Z,14.59
2018-12-09T11:07:50.533Z,14.50
2018-12-09T11:10:16.703Z,14.51
2018-12-09T11:12:42.837Z,14.76
2018-12-09T11:15:09.005Z,14.83
2018-12-09T11:17:35.206Z,14.81
2018-12-09T11:20:01.621Z,14.49
2018-12-09T11:22:27.789Z,14.28
2018-12-09T11:24:53.965Z,13.71
2018-12-09T11:27:20.118Z,13.69
2018-12-09T11:29:46.279Z,13.66
2018-12-09T11:32:12.758Z,13.71
2018-12-09T11:34:38.930Z,13.55
2018-12-09T11:37:05.085Z,13.51
2018-12-09T11:39:31.267Z,13.08
2018-12-09T11:44:40.111Z,13.40
2018-12-09T11:47:06.262Z,13.53
2018-12-09T11:49:32.418Z,13.39
2018-12-09T11:51:58.620Z,13.42
2018-12-09T11:54:24.828Z,13.35
2018-12-09T11:56:50.962Z,13.23
2018-12-09T11:59:17.296Z,13.24
2018-12-09T12:01:43.449Z,13.20
2018-12-09T12:04:09.601Z,13.24
2018-12-09T12:06:35.793Z,13.49
2018-12-09T12:09:02.018Z,13.79
2018-12-09T12:11:28.201Z,13.53
2018-12-09T12:13:54.362Z,13.78
2018-12-09T12:16:21.117Z,13.76
2018-12-09T12:18:47.246Z,13.50
2018-12-09T12:21:13.429Z,13.51
2018-12-09T12:23:39.570Z,13.62
2018-12-09T12:26:05.761Z,13.87
2018-12-09T12:28:32.073Z,13.91
2018-12-09T12:30:58.217Z,13.98
2018-12-09T12:33:24.378Z,14.23
2018-12-09T12:35:50.608Z,14.48
2018-12-09T12:38:16.782Z,14.72
2018-12-09T12:40:42.966Z,14.90
2018-12-09T12:43:09.173Z,14.99
2018-12-09T12:45:35.467Z,15.06
2018-12-09T12:48:01.639Z,15.14
2018-12-09T12:50:27.862Z,15.25
2018-12-09T12:52:54.027Z,15.27
2018-12-09T12:55:20.192Z,15.18
2018-12-09T12:57:46.757Z,15.04
2018-12-09T13:00:14.224Z,15.19
2018-12-09T13:02:40.375Z,15.30
2018-12-09T13:05:06.812Z,15.34
2018-12-09T13:07:32.962Z,15.22
2018-12-09T13:09:59.089Z,15.13
2018-12-09T13:12:25.259Z,15.11
2018-12-09T13:14:51.406Z,15.33
2018-12-09T13:17:20.456Z,15.50
2018-12-09T13:19:46.667Z,15.42
2018-12-09T13:22:12.873Z,15.24
2018-12-09T13:24:39.910Z,15.18
2018-12-09T13:27:06.114Z,15.04
2018-12-09T13:29:32.274Z,14.95
2018-12-09T13:31:58.421Z,15.03
2018-12-09T13:34:24.734Z,15.29
2018-12-09T13:36:50.880Z,15.52
2018-12-09T13:39:17.050Z,15.56
2018-12-09T13:41:43.222Z,15.34
2018-12-09T13:44:09.386Z,15.05
2018-12-09T13:46:35.565Z,14.99
2018-12-09T13:49:01.749Z,14.87
2018-12-09T13:51:27.917Z,14.49
2018-12-09T13:53:54.077Z,14.11
2018-12-09T13:56:20.274Z,14.07
2018-12-09T13:58:46.421Z,13.80
2018-12-09T14:01:12.657Z,13.57
2018-12-09T14:03:38.856Z,13.55
2018-12-09T14:06:05.008Z,13.65
2018-12-09T14:08:31.153Z,13.68
2018-12-09T14:10:57.354Z,13.26
2018-12-09T14:13:23.497Z,12.79
2018-12-09T14:15:49.639Z,12.88
2018-12-09T14:18:15.826Z,12.78
2018-12-09T14:20:42.012Z,12.64
2018-12-09T14:23:08.205Z,12.72
2018-12-09T14:25:34.364Z,12.73
2018-12-09T14:28:00.514Z,12.71
2018-12-09T14:30:26.699Z,12.40
2018-12-09T14:32:52.909Z,11.84
2018-12-09T14:35:19.061Z,11.63
2018-12-09T14:37:45.225Z,11.51
2018-12-09T14:40:11.557Z,11.38
2018-12-09T14:42:37.723Z,11.23
2018-12-09T14:45:05.542Z,11.12
2018-12-09T14:47:31.745Z,10.91
2018-12-09T14:49:57.913Z,10.66
2018-12-09T14:52:24.066Z,10.47
2018-12-09T14:54:50.251Z,10.26
2018-12-09T14:57:16.719Z,10.24
2018-12-09T14:59:42.858Z,10.10
2018-12-09T15:02:09.090Z,10.04
2018-12-09T15:04:35.228Z,9.97
2018-12-09T15:07:01.394Z,10.01
2018-12-09T15:09:27.614Z,9.88
2018-12-09T15:11:53.777Z,9.77
2018-12-09T15:14:19.928Z,9.77
2018-12-09T15:16:46.154Z,9.78
2018-12-09T15:19:12.311Z,9.61
2018-12-09T15:21:38.466Z,9.41
2018-12-09T15:24:04.657Z,9.23
2018-12-09T15:26:30.806Z,9.01
2018-12-09T15:28:56.971Z,8.82
2018-12-09T15:31:23.149Z,8.55
2018-12-09T15:33:49.288Z,8.45
2018-12-09T15:36:15.439Z,8.42
2018-12-09T15:38:41.642Z,8.33
2018-12-09T15:41:07.793Z,8.16
2018-12-09T15:43:33.961Z,8.03
2018-12-09T15:46:00.128Z,8.02
2018-12-09T15:48:26.281Z,8.02
2018-12-09T15:50:52.665Z,8.00
2018-12-09T15:53:18.836Z,8.02
2018-12-09T15:55:45.001Z,8.08
2018-12-09T15:58:11.144Z,8.05
2018-12-09T16:00:39.414Z,8.03
2018-12-09T16:03:05.941Z,7.94
2018-12-09T16:05:32.227Z,7.85
2018-12-09T16:07:58.430Z,7.74
2018-12-09T16:10:24.612Z,7.53
2018-12-09T16:12:50.761Z,7.50
2018-12-09T16:15:16.976Z,7.51
2018-12-09T16:17:43.142Z,7.43
2018-12-09T16:20:09.306Z,7.34
2018-12-09T16:22:35.486Z,7.34
2018-12-09T16:25:01.830Z,7.31
2018-12-09T16:27:28.477Z,7.26
2018-12-09T16:29:54.654Z,7.39
2018-12-09T16:32:20.829Z,7.41
2018-12-09T16:34:47.001Z,7.39
2018-12-09T16:37:13.174Z,7.38
2018-12-09T16:39:39.327Z,7.42
2018-12-09T16:42:05.461Z,7.34
2018-12-09T16:44:31.668Z,7.38
2018-12-09T16:46:57.829Z,7.23
2018-12-09T16:49:23.995Z,7.16
2018-12-09T16:51:50.169Z,7.12
2018-12-09T16:54:16.326Z,7.10
2018-12-09T16:56:42.469Z,7.05
2018-12-09T16:59:08.645Z,7.00
2018-12-09T17:01:34.806Z,6.99
2018-12-09T17:04:01.069Z,7.12
2018-12-09T17:06:27.257Z,7.29
2018-12-09T17:08:53.413Z,7.43
2018-12-09T17:11:19.548Z,7.32
2018-12-09T17:13:45.734Z,7.21
2018-12-09T17:16:18.109Z,7.09
2018-12-09T17:18:44.301Z,6.90
2018-12-09T17:21:11.538Z,6.88
2018-12-09T17:23:37.787Z,6.94
2018-12-09T17:26:04.039Z,7.18
2018-12-09T17:28:30.258Z,7.12
2018-12-09T17:30:56.413Z,6.94
2018-12-09T17:33:23.598Z,6.88
2018-12-09T17:35:50.005Z,6.73
2018-12-09T17:38:16.144Z,6.69
2018-12-09T17:40:42.294Z,6.53
2018-12-09T17:43:09.833Z,6.31
2018-12-09T17:45:35.989Z,6.48
2018-12-09T17:48:02.205Z,6.61
2018-12-09T17:50:28.629Z,6.52
2018-12-09T17:52:54.761Z,6.71
2018-12-09T17:55:20.908Z,6.83
2018-12-09T17:57:47.074Z,6.86
2018-12-09T18:00:13.217Z,6.79
2018-12-09T18:02:39.371Z,6.74
2018-12-09T18:05:05.641Z,6.69
2018-12-09T18:07:31.805Z,6.64
2018-12-09T18:09:57.947Z,6.52
2018-12-09T18:12:24.114Z,6.52
2018-12-09T18:14:50.276Z,6.54
2018-12-09T18:17:16.434Z,6.50
2018-12-09T18:19:46.897Z,6.62
2018-12-09T18:22:13.053Z,6.83
2018-12-09T18:24:39.230Z,6.83
2018-12-09T18:27:05.434Z,6.74
2018-12-09T18:29:31.624Z,6.80
2018-12-09T18:31:58.363Z,6.53
2018-12-09T18:34:24.569Z,6.40
2018-12-09T18:36:50.966Z,6.34
2018-12-09T18:39:17.469Z,6.38
2018-12-09T18:41:43.670Z,6.40
2018-12-09T18:44:09.867Z,6.47
2018-12-09T18:46:37.004Z,6.62
2018-12-09T18:49:03.206Z,6.51
2018-12-09T18:51:30.103Z,6.53
2018-12-09T18:53:56.258Z,6.60
2018-12-09T18:56:22.530Z,6.59
2018-12-09T18:58:48.723Z,6.62
2018-12-09T19:01:14.903Z,6.70
2018-12-09T19:03:41.109Z,6.70
2018-12-09T19:06:07.247Z,6.79
2018-12-09T19:08:33.420Z,7.05
2018-12-09T19:10:59.609Z,7.09
2018-12-09T19:13:25.750Z,7.24
2018-12-09T19:15:51.916Z,7.54
2018-12-09T19:18:18.084Z,7.49
2018-12-09T19:20:44.229Z,7.46
2018-12-09T19:23:10.362Z,7.42
2018-12-09T19:25:36.577Z,7.67
2018-12-09T19:28:02.777Z,7.84
2018-12-09T19:30:28.946Z,7.76
2018-12-09T19:32:55.109Z,7.95
2018-12-09T19:35:21.253Z,7.98
2018-12-09T19:37:47.411Z,7.94
2018-12-09T19:40:13.588Z,7.82
2018-12-09T19:42:39.730Z,7.60
2018-12-09T19:45:06.032Z,7.62
2018-12-09T19:47:32.246Z,7.70
2018-12-09T19:49:58.403Z,7.78
2018-12-09T19:52:24.605Z,7.88
2018-12-09T19:54:50.977Z,7.98
2018-12-09T19:57:17.164Z,7.89
2018-12-09T19:59:43.336Z,7.73
2018-12-09T20:02:09.582Z,7.56
2018-12-09T20:04:35.753Z,7.66
2018-12-09T20:07:02.002Z,7.50
2018-12-09T20:09:28.206Z,7.40
2018-12-09T20:11:54.385Z,7.32
2018-12-09T20:14:20.574Z,7.16
2018-12-09T20:16:46.745Z,7.03
2018-12-09T20:19:12.884Z,7.10
2018-12-09T20:21:39.082Z,7.06
2018-12-09T20:24:05.316Z,6.92
2018-12-09T20:26:31.530Z,6.86
2018-12-09T20:28:57.685Z,6.81
2018-12-09T20:31:23.862Z,6.71
2018-12-09T20:33:50.015Z,6.68
2018-12-09T20:36:16.162Z,6.65
2018-12-09T20:38:42.337Z,6.59
2018-12-09T20:41:08.480Z,6.33
2018-12-09T20:43:34.615Z,6.34
2018-12-09T20:46:00.802Z,6.38
2018-12-09T20:48:26.958Z,6.33
2018-12-09T20:50:53.132Z,6.19
2018-12-09T20:53:19.322Z,6.18
2018-12-09T20:55:45.578Z,6.15
2018-12-09T20:58:11.858Z,6.03
2018-12-09T21:05:51.794Z,5.86
2018-12-09T21:08:17.978Z,5.75
2018-12-09T21:10:44.167Z,5.62
2018-12-09T21:13:10.410Z,5.60
2018-12-09T21:15:36.739Z,5.74
2018-12-09T21:18:03.189Z,5.70
2018-12-09T21:20:29.565Z,5.74
2018-12-09T21:22:56.700Z,5.82
2018-12-09T21:25:26.915Z,5.74
2018-12-09T21:27:53.126Z,5.58
2018-12-09T21:30:19.678Z,5.68
2018-12-09T21:32:46.071Z,5.66
2018-12-09T21:35:12.274Z,5.76
2018-12-09T21:37:38.424Z,5.75
2018-12-09T21:40:05.765Z,5.70
2018-12-09T21:42:31.925Z,5.67
2018-12-09T21:44:58.082Z,5.75
2018-12-09T21:47:24.277Z,5.76
2018-12-09T21:49:50.425Z,5.68
2018-12-09T21:52:16.567Z,5.53
2018-12-09T21:54:42.708Z,5.29
2018-12-09T21:57:08.869Z,5.41
2018-12-09T21:59:35.018Z,5.41
2018-12-09T22:02:01.169Z,5.41
2018-12-09T22:04:27.367Z,5.38
2018-12-09T22:06:53.497Z,5.47
2018-12-09T22:09:19.653Z,5.54
2018-12-09T22:11:45.852Z,5.53
2018-12-09T22:14:12.009Z,5.58
2018-12-09T22:16:38.161Z,5.64
2018-12-09T22:19:04.361Z,5.74
2018-12-09T22:21:30.514Z,5.61
2018-12-09T22:23:56.672Z,5.66
2018-12-09T22:26:22.885Z,5.57
2018-12-09T22:28:49.033Z,5.31
2018-12-09T22:31:15.171Z,5.36
2018-12-09T22:33:41.344Z,5.17
2018-12-09T22:36:07.538Z,5.26
2018-12-09T22:38:33.680Z,5.35
2018-12-09T22:40:59.870Z,5.42
2018-12-09T22:43:26.013Z,5.37
2018-12-09T22:45:52.163Z,5.44
2018-12-09T22:48:18.342Z,5.53
2018-12-09T22:50:44.506Z,5.40
2018-12-09T22:53:10.661Z,5.44
2018-12-09T22:55:36.957Z,5.37
2018-12-09T22:58:03.100Z,5.33
2018-12-09T23:00:29.396Z,5.43
2018-12-09T23:03:01.658Z,5.43
2018-12-09T23:05:27.945Z,5.44
2018-12-09T23:07:54.099Z,5.41
2018-12-09T23:10:20.565Z,5.39
2018-12-09T23:12:46.705Z,5.27
2018-12-09T23:15:13.006Z,5.39
2018-12-09T23:17:39.201Z,5.33
2018-12-09T23:20:05.510Z,5.30
2018-12-09T23:22:31.667Z,5.29
2018-12-09T23:24:57.869Z,5.33
2018-12-09T23:27:24.031Z,5.35
2018-12-09T23:29:50.193Z,5.31
2018-12-09T23:32:16.375Z,5.23
2018-12-09T23:34:42.538Z,5.05
2018-12-09T23:37:08.696Z,4.93
2018-12-09T23:39:34.872Z,4.97
2018-12-09T23:42:01.024Z,5.07
2018-12-09T23:44:27.170Z,5.15
2018-12-09T23:46:53.348Z,5.13
2018-12-09T23:49:19.487Z,5.14
2018-12-09T23:51:45.637Z,5.13
2018-12-09T23:54:11.793Z,5.10
2018-12-09T23:56:37.949Z,5.05
2018-12-09T23:59:04.080Z,5.15
